createdAt,value
2018-03-21T00:01:22.355Z,0.80
2018-03-21T00:03:49.867Z,0.90
2018-03-21T00:06:18.142Z,0.90
2018-03-21T00:08:46.436Z,0.90
2018-03-21T00:11:14.699Z,1.00
2018-03-21T00:13:42.979Z,1.00
2018-03-21T00:16:11.289Z,1.10
2018-03-21T00:18:38.812Z,1.10
2018-03-21T00:21:06.346Z,1.10
2018-03-21T00:23:33.879Z,1.10
2018-03-21T00:26:01.422Z,1.10
2018-03-21T00:28:28.926Z,1.10
2018-03-21T00:30:56.440Z,1.10
2018-03-21T00:33:24.141Z,1.00
2018-03-21T00:35:51.681Z,1.10
2018-03-21T00:38:19.234Z,1.00
2018-03-21T00:40:46.746Z,1.00
2018-03-21T00:43:14.283Z,1.00
2018-03-21T00:45:41.815Z,1.00
2018-03-21T00:48:09.346Z,1.00
2018-03-21T00:50:37.620Z,1.00
2018-03-21T00:53:05.134Z,1.00
2018-03-21T00:55:32.673Z,0.90
2018-03-21T00:58:00.187Z,0.90
2018-03-21T01:00:27.720Z,0.90
2018-03-21T01:02:55.243Z,0.90
2018-03-21T01:05:22.869Z,1.00
2018-03-21T01:07:51.184Z,1.00
2018-03-21T01:10:18.713Z,1.00
2018-03-21T01:12:46.220Z,0.90
2018-03-21T01:15:13.776Z,0.80
2018-03-21T01:17:41.359Z,0.90
2018-03-21T01:20:08.908Z,0.80
2018-03-21T01:22:36.415Z,0.90
2018-03-21T01:25:03.957Z,0.90
2018-03-21T01:27:31.464Z,0.90
2018-03-21T01:29:59.016Z,0.90
2018-03-21T01:32:26.574Z,0.90
2018-03-21T01:34:54.078Z,0.90
2018-03-21T01:37:21.650Z,0.80
2018-03-21T01:39:49.171Z,0.80
2018-03-21T01:42:16.702Z,0.80
2018-03-21T01:44:44.223Z,0.70
2018-03-21T01:47:11.743Z,0.80
2018-03-21T01:49:39.268Z,0.80
2018-03-21T01:52:06.808Z,0.70
2018-03-21T01:54:34.313Z,0.70
2018-03-21T01:57:01.848Z,0.70
2018-03-21T01:59:29.552Z,0.60
2018-03-21T02:01:57.071Z,0.60
2018-03-21T02:04:25.356Z,0.50
2018-03-21T02:06:52.891Z,0.50
2018-03-21T02:09:21.190Z,0.60
2018-03-21T02:11:48.717Z,0.50
2018-03-21T02:14:17.026Z,0.50
2018-03-21T02:16:44.533Z,0.40
2018-03-21T02:19:12.072Z,0.50
2018-03-21T02:21:39.597Z,0.60
2018-03-21T02:24:07.872Z,0.60
2018-03-21T02:26:36.171Z,0.50
2018-03-21T02:29:03.708Z,0.50
2018-03-21T02:31:31.259Z,0.50
2018-03-21T02:33:59.543Z,0.50
2018-03-21T02:36:27.823Z,0.40
2018-03-21T02:38:56.091Z,0.40
2018-03-21T02:41:24.403Z,0.40
2018-03-21T02:43:51.918Z,0.40
2018-03-21T02:46:19.426Z,0.30
2018-03-21T02:48:46.958Z,0.30
2018-03-21T02:51:15.318Z,0.10
2018-03-21T02:53:42.842Z,0.10
2018-03-21T02:56:10.362Z,0.20
2018-03-21T02:58:37.875Z,0.10
2018-03-21T03:01:05.391Z,-0.20
2018-03-21T03:03:38.591Z,-0.20
2018-03-21T03:06:21.620Z,-0.30
2018-03-21T03:08:59.717Z,-0.40
2018-03-21T03:11:33.937Z,-0.50
2018-03-21T03:14:09.465Z,-0.40
2018-03-21T03:16:36.979Z,-0.30
2018-03-21T03:19:04.499Z,-0.30
2018-03-21T03:21:32.024Z,-0.50
2018-03-21T03:24:00.338Z,-0.50
2018-03-21T03:26:27.882Z,-0.50
2018-03-21T03:28:55.394Z,-0.50
2018-03-21T03:31:22.914Z,-0.50
2018-03-21T03:33:50.459Z,-0.40
2018-03-21T03:36:17.975Z,-0.40
2018-03-21T03:38:45.521Z,-0.40
2018-03-21T03:41:13.048Z,-0.30
2018-03-21T03:43:40.606Z,-0.30
2018-03-21T03:46:08.161Z,-0.30
2018-03-21T03:48:35.679Z,-0.40
2018-03-21T03:51:03.262Z,-0.50
2018-03-21T03:53:30.818Z,-0.60
2018-03-21T03:55:59.111Z,-0.40
2018-03-21T03:58:27.406Z,-0.30
2018-03-21T04:00:54.911Z,-0.40
2018-03-21T04:03:22.512Z,-0.40
2018-03-21T04:05:50.009Z,-0.40
2018-03-21T04:08:17.520Z,-0.50
2018-03-21T04:10:45.042Z,-0.50
2018-03-21T04:13:12.562Z,-0.50
2018-03-21T04:15:40.086Z,-0.60
2018-03-21T04:18:07.628Z,-0.60
2018-03-21T04:20:35.153Z,-0.60
2018-03-21T04:23:02.690Z,-0.50
2018-03-21T04:25:30.212Z,-0.30
2018-03-21T04:27:57.742Z,-0.40
2018-03-21T04:30:25.243Z,-0.50
2018-03-21T04:32:52.753Z,-0.60
2018-03-21T04:35:20.285Z,-0.50
2018-03-21T04:37:47.792Z,-0.50
2018-03-21T04:40:15.304Z,-0.50
2018-03-21T04:42:42.828Z,-0.60
2018-03-21T04:45:10.379Z,-0.70
2018-03-21T04:47:37.958Z,-0.80
2018-03-21T04:50:05.479Z,-0.80
2018-03-21T04:52:33.027Z,-0.70
2018-03-21T04:55:00.550Z,-0.70
2018-03-21T04:57:28.828Z,-0.80
2018-03-21T04:59:57.145Z,-0.90
2018-03-21T05:02:24.660Z,-0.90
2018-03-21T05:04:52.195Z,-0.80
2018-03-21T05:07:20.308Z,-0.90
2018-03-21T05:09:47.822Z,-1.00
2018-03-21T05:12:15.413Z,-0.90
2018-03-21T05:14:43.695Z,-0.80
2018-03-21T05:17:11.969Z,-0.70
2018-03-21T05:19:40.243Z,-0.50
2018-03-21T05:22:08.511Z,-0.50
2018-03-21T05:24:36.803Z,-0.60
2018-03-21T05:27:05.097Z,-0.70
2018-03-21T05:29:32.631Z,-0.70
2018-03-21T05:32:00.302Z,-0.70
2018-03-21T05:34:27.887Z,-0.70
2018-03-21T05:36:55.406Z,-0.60
2018-03-21T05:39:22.946Z,-0.50
2018-03-21T05:41:50.536Z,-0.40
2018-03-21T05:44:18.057Z,-0.40
2018-03-21T05:46:45.582Z,-0.30
2018-03-21T05:49:13.120Z,-0.30
2018-03-21T05:51:41.401Z,-0.30
2018-03-21T05:54:08.899Z,-0.30
2018-03-21T05:56:37.200Z,-0.10
2018-03-21T05:59:04.797Z,-0.10
2018-03-21T06:01:32.346Z,0.10
2018-03-21T06:04:00.670Z,0.50
2018-03-21T06:06:28.186Z,0.40
2018-03-21T06:08:55.699Z,0.40
2018-03-21T06:11:23.322Z,0.30
2018-03-21T06:13:50.863Z,0.10
2018-03-21T06:16:19.191Z,0.00
2018-03-21T06:18:46.746Z,0.00
2018-03-21T06:21:14.254Z,-0.10
2018-03-21T06:23:42.564Z,-0.20
2018-03-21T06:26:10.136Z,-0.20
2018-03-21T06:28:37.660Z,-0.10
2018-03-21T06:31:05.959Z,0.10
2018-03-21T06:33:33.512Z,0.10
2018-03-21T06:36:01.076Z,0.10
2018-03-21T06:38:28.692Z,0.10
2018-03-21T06:40:56.269Z,0.20
2018-03-21T06:43:23.848Z,0.20
2018-03-21T06:45:51.367Z,0.30
2018-03-21T06:48:19.715Z,0.20
2018-03-21T06:50:47.273Z,0.30
2018-03-21T06:53:14.950Z,0.30
2018-03-21T06:55:42.462Z,0.20
2018-03-21T06:58:09.986Z,0.30
2018-03-21T07:00:37.547Z,0.40
2018-03-21T07:03:05.073Z,0.40
2018-03-21T07:05:32.610Z,0.50
2018-03-21T07:08:00.137Z,0.60
2018-03-21T07:10:27.783Z,0.70
2018-03-21T07:12:55.423Z,0.60
2018-03-21T07:15:34.821Z,0.70
2018-03-21T07:18:02.392Z,0.80
2018-03-21T07:20:29.933Z,0.90
2018-03-21T07:22:57.448Z,0.90
2018-03-21T07:25:25.031Z,0.80
2018-03-21T07:27:52.598Z,0.90
2018-03-21T07:30:20.136Z,1.00
2018-03-21T07:32:47.651Z,1.00
2018-03-21T07:35:15.162Z,1.20
2018-03-21T07:37:42.957Z,1.20
2018-03-21T07:40:10.476Z,1.20
2018-03-21T07:42:38.020Z,1.10
2018-03-21T07:45:05.617Z,1.20
2018-03-21T07:47:33.961Z,1.30
2018-03-21T07:50:01.526Z,1.40
2018-03-21T07:52:29.036Z,1.40
2018-03-21T07:54:57.318Z,1.50
2018-03-21T07:57:25.616Z,1.50
2018-03-21T07:59:53.142Z,1.40
2018-03-21T08:02:20.697Z,1.50
2018-03-21T08:04:48.230Z,1.60
2018-03-21T08:07:15.749Z,1.60
2018-03-21T08:09:43.257Z,1.60
2018-03-21T08:12:10.759Z,1.60
2018-03-21T08:14:39.067Z,1.70
2018-03-21T08:17:06.589Z,1.70
2018-03-21T08:19:34.134Z,1.80
2018-03-21T08:22:02.422Z,2.00
2018-03-21T08:24:30.735Z,2.10
2018-03-21T08:26:58.261Z,2.00
2018-03-21T08:29:25.783Z,2.10
2018-03-21T08:31:53.303Z,2.20
2018-03-21T08:34:20.836Z,2.20
2018-03-21T08:36:49.118Z,2.20
2018-03-21T08:39:16.638Z,2.20
2018-03-21T08:41:44.273Z,2.20
2018-03-21T08:44:11.789Z,2.30
2018-03-21T08:46:39.359Z,2.40
2018-03-21T08:49:06.861Z,2.50
2018-03-21T08:51:34.373Z,2.50
2018-03-21T08:54:02.642Z,2.70
2018-03-21T08:56:30.915Z,2.70
2018-03-21T08:58:58.437Z,2.70
2018-03-21T09:01:25.971Z,2.90
2018-03-21T09:03:53.519Z,2.90
2018-03-21T09:06:21.073Z,3.00
2018-03-21T09:08:48.602Z,3.00
2018-03-21T09:11:16.104Z,3.10
2018-03-21T09:13:43.619Z,3.10
2018-03-21T09:16:11.119Z,3.10
2018-03-21T09:18:38.620Z,3.20
2018-03-21T09:21:06.118Z,3.20
2018-03-21T09:23:34.395Z,3.30
2018-03-21T09:26:02.729Z,3.50
2018-03-21T09:28:30.232Z,3.50
2018-03-21T09:30:57.783Z,3.50
2018-03-21T09:33:25.301Z,3.40
2018-03-21T09:35:52.809Z,3.60
2018-03-21T09:38:20.316Z,3.70
2018-03-21T09:40:47.870Z,3.80
2018-03-21T09:43:15.379Z,3.80
2018-03-21T09:45:42.922Z,3.90
2018-03-21T09:48:10.441Z,4.00
2018-03-21T09:50:37.962Z,4.20
2018-03-21T09:53:05.471Z,4.10
2018-03-21T09:55:33.002Z,4.30
2018-03-21T09:58:00.505Z,4.50
2018-03-21T10:00:27.996Z,4.80
2018-03-21T10:02:55.508Z,4.90
2018-03-21T10:05:23.061Z,5.20
2018-03-21T10:07:50.572Z,5.30
2018-03-21T10:10:18.092Z,5.10
2018-03-21T10:12:45.615Z,5.10
2018-03-21T10:15:13.115Z,4.90
2018-03-21T10:17:40.614Z,5.10
2018-03-21T10:20:08.133Z,5.20
2018-03-21T10:22:35.639Z,5.30
2018-03-21T10:25:03.931Z,5.30
2018-03-21T10:27:31.430Z,5.30
2018-03-21T10:29:58.994Z,5.40
2018-03-21T10:32:27.264Z,5.90
2018-03-21T10:34:54.791Z,5.90
2018-03-21T10:37:22.292Z,6.70
2018-03-21T10:39:49.834Z,7.40
2018-03-21T10:42:17.347Z,8.00
2018-03-21T10:44:44.865Z,8.60
2018-03-21T10:47:12.381Z,9.40
2018-03-21T10:49:39.922Z,9.60
2018-03-21T10:52:08.198Z,9.90
2018-03-21T10:54:36.532Z,10.90
2018-03-21T10:57:04.021Z,10.90
2018-03-21T10:59:31.572Z,11.60
2018-03-21T11:02:04.767Z,11.30
2018-03-21T11:04:32.226Z,11.60
2018-03-21T11:06:59.748Z,13.30
2018-03-21T11:09:27.264Z,13.40
2018-03-21T11:11:55.579Z,14.00
2018-03-21T11:14:23.087Z,14.00
2018-03-21T11:16:50.595Z,13.40
2018-03-21T11:19:18.174Z,13.80
2018-03-21T11:21:45.699Z,13.30
2018-03-21T11:24:13.202Z,13.50
2018-03-21T11:26:40.754Z,14.00
2018-03-21T11:29:08.276Z,13.20
2018-03-21T11:31:35.805Z,13.80
2018-03-21T11:34:03.371Z,13.80
2018-03-21T11:36:31.652Z,13.60
2018-03-21T11:38:59.946Z,14.20
2018-03-21T11:41:27.474Z,14.20
2018-03-21T11:43:54.998Z,13.30
2018-03-21T11:46:22.512Z,12.50
2018-03-21T11:48:50.809Z,14.60
2018-03-21T11:51:18.335Z,14.60
2018-03-21T11:53:45.844Z,15.10
2018-03-21T11:56:13.379Z,15.00
2018-03-21T11:58:41.066Z,15.90
2018-03-21T12:01:08.678Z,16.30
2018-03-21T12:03:36.991Z,14.40
2018-03-21T12:06:04.564Z,14.40
2018-03-21T12:08:32.140Z,13.10
2018-03-21T12:10:59.643Z,12.40
2018-03-21T12:13:27.198Z,11.30
2018-03-21T12:15:54.718Z,10.60
2018-03-21T12:18:22.241Z,12.00
2018-03-21T12:20:49.777Z,14.10
2018-03-21T12:23:17.302Z,12.30
2018-03-21T12:25:44.827Z,12.00
2018-03-21T12:28:12.340Z,12.00
2018-03-21T12:30:39.871Z,11.00
2018-03-21T12:33:07.369Z,10.50
2018-03-21T12:35:34.880Z,10.60
2018-03-21T12:38:02.458Z,11.60
2018-03-21T12:40:29.983Z,12.10
2018-03-21T12:42:57.545Z,13.30
2018-03-21T12:45:25.103Z,13.60
2018-03-21T12:47:52.616Z,13.70
2018-03-21T12:50:20.160Z,13.10
2018-03-21T12:52:47.713Z,13.50
2018-03-21T12:55:15.242Z,13.40
2018-03-21T12:57:42.747Z,12.40
2018-03-21T13:00:10.344Z,12.10
2018-03-21T13:02:38.635Z,11.90
2018-03-21T13:05:06.193Z,11.90
2018-03-21T13:07:33.798Z,11.40
2018-03-21T13:10:01.573Z,11.00
2018-03-21T13:12:29.316Z,11.30
2018-03-21T13:14:56.815Z,11.40
2018-03-21T13:17:24.323Z,11.50
2018-03-21T13:19:51.848Z,11.20
2018-03-21T13:22:20.170Z,10.70
2018-03-21T13:24:48.574Z,10.70
2018-03-21T13:27:16.107Z,10.40
2018-03-21T13:29:43.623Z,11.00
2018-03-21T13:32:11.206Z,11.30
2018-03-21T13:34:38.794Z,11.30
2018-03-21T13:37:06.342Z,11.90
2018-03-21T13:39:33.850Z,12.10
2018-03-21T13:42:01.354Z,11.20
2018-03-21T13:44:28.916Z,10.90
2018-03-21T13:46:56.438Z,10.70
2018-03-21T13:49:24.845Z,11.80
2018-03-21T13:51:52.382Z,11.80
2018-03-21T13:54:20.678Z,11.60
2018-03-21T13:56:48.218Z,11.60
2018-03-21T13:59:16.632Z,11.60
2018-03-21T14:01:44.157Z,11.50
2018-03-21T14:04:12.469Z,13.30
2018-03-21T14:06:39.971Z,13.30
2018-03-21T14:09:07.470Z,12.20
2018-03-21T14:11:35.158Z,11.90
2018-03-21T14:14:02.673Z,12.30
2018-03-21T14:16:31.023Z,12.30
2018-03-21T14:18:58.528Z,12.30
2018-03-21T14:21:26.070Z,12.80
2018-03-21T14:23:54.396Z,13.00
2018-03-21T14:26:21.972Z,13.00
2018-03-21T14:28:49.497Z,11.70
2018-03-21T14:31:17.047Z,10.40
2018-03-21T14:33:44.618Z,10.20
2018-03-21T14:36:12.170Z,10.50
2018-03-21T14:38:39.693Z,10.50
2018-03-21T14:41:07.236Z,10.40
2018-03-21T14:43:34.732Z,10.50
2018-03-21T14:46:02.403Z,9.90
2018-03-21T14:48:29.923Z,9.80
2018-03-21T14:50:57.439Z,9.60
2018-03-21T14:53:24.967Z,9.40
2018-03-21T14:55:52.469Z,9.50
2018-03-21T14:58:19.964Z,9.30
2018-03-21T15:00:47.513Z,9.00
2018-03-21T15:03:15.065Z,8.80
2018-03-21T15:05:42.691Z,8.60
2018-03-21T15:08:10.206Z,8.40
2018-03-21T15:10:38.301Z,8.40
2018-03-21T15:13:06.578Z,8.50
2018-03-21T15:15:35.746Z,8.30
2018-03-21T15:18:03.251Z,8.30
2018-03-21T15:20:30.764Z,8.20
2018-03-21T15:22:58.271Z,8.00
2018-03-21T15:25:25.791Z,8.00
2018-03-21T15:27:53.297Z,7.90
2018-03-21T15:30:20.828Z,7.90
2018-03-21T15:32:49.110Z,7.80
2018-03-21T15:35:17.422Z,7.80
2018-03-21T15:37:44.939Z,7.70
2018-03-21T15:40:12.518Z,7.70
2018-03-21T15:42:40.022Z,7.50
2018-03-21T15:45:07.574Z,7.50
2018-03-21T15:47:35.047Z,7.40
2018-03-21T15:50:03.210Z,7.30
2018-03-21T15:52:30.752Z,7.40
2018-03-21T15:54:58.293Z,7.50
2018-03-21T15:57:25.845Z,7.40
2018-03-21T15:59:53.357Z,7.30
2018-03-21T16:02:20.895Z,7.10
2018-03-21T16:04:48.491Z,7.00
2018-03-21T16:07:16.003Z,7.00
2018-03-21T16:09:43.534Z,6.70
2018-03-21T16:12:11.771Z,6.70
2018-03-21T16:14:39.353Z,6.60
2018-03-21T16:17:07.678Z,6.60
2018-03-21T16:19:35.206Z,6.60
2018-03-21T16:22:02.738Z,6.70
2018-03-21T16:24:30.384Z,6.70
2018-03-21T16:26:57.988Z,6.70
2018-03-21T16:29:25.510Z,6.60
2018-03-21T16:31:53.054Z,6.60
2018-03-21T16:34:20.580Z,6.60
2018-03-21T16:36:48.108Z,6.60
2018-03-21T16:39:15.677Z,6.50
2018-03-21T16:41:43.155Z,6.50
2018-03-21T16:44:10.665Z,6.50
2018-03-21T16:46:38.181Z,6.40
2018-03-21T16:49:05.770Z,6.40
2018-03-21T16:51:33.323Z,6.40
2018-03-21T16:54:00.842Z,6.40
2018-03-21T16:56:29.115Z,6.20
2018-03-21T16:58:56.745Z,6.10
2018-03-21T17:01:24.327Z,6.20
2018-03-21T17:03:51.855Z,6.20
2018-03-21T17:06:19.373Z,6.10
2018-03-21T17:08:47.644Z,6.00
2018-03-21T17:11:15.181Z,6.00
2018-03-21T17:13:42.745Z,5.90
2018-03-21T17:16:10.285Z,5.90
2018-03-21T17:18:37.810Z,5.90
2018-03-21T17:21:05.330Z,5.80
2018-03-21T17:23:32.879Z,5.90
2018-03-21T17:26:00.440Z,5.80
2018-03-21T17:28:27.984Z,5.80
2018-03-21T17:30:55.492Z,5.70
2018-03-21T17:33:23.797Z,5.80
2018-03-21T17:35:51.305Z,5.80
2018-03-21T17:38:18.814Z,5.80
2018-03-21T17:40:46.352Z,5.80
2018-03-21T17:43:13.881Z,5.80
2018-03-21T17:45:41.394Z,5.80
2018-03-21T17:48:08.931Z,5.70
2018-03-21T17:50:36.459Z,5.80
2018-03-21T17:53:03.987Z,5.80
2018-03-21T17:55:31.540Z,5.70
2018-03-21T17:57:59.059Z,5.60
2018-03-21T18:00:26.583Z,5.60
2018-03-21T18:02:54.099Z,5.60
2018-03-21T18:05:21.656Z,5.60
2018-03-21T18:07:49.184Z,5.50
2018-03-21T18:10:17.485Z,5.50
2018-03-21T18:12:45.004Z,5.50
2018-03-21T18:15:12.539Z,5.60
2018-03-21T18:17:40.103Z,5.50
2018-03-21T18:20:07.643Z,5.40
2018-03-21T18:22:35.156Z,5.50
2018-03-21T18:25:03.456Z,5.40
2018-03-21T18:27:31.007Z,5.40
2018-03-21T18:29:58.561Z,5.50
2018-03-21T18:32:27.000Z,5.40
2018-03-21T18:34:54.521Z,5.40
2018-03-21T18:37:22.044Z,5.30
2018-03-21T18:39:49.575Z,5.20
2018-03-21T18:42:17.112Z,5.20
2018-03-21T18:44:44.631Z,5.20
2018-03-21T18:47:16.297Z,5.20
2018-03-21T19:07:02.520Z,5.10
2018-03-21T19:09:30.875Z,5.10
2018-03-21T19:11:58.397Z,5.10
2018-03-21T19:14:26.699Z,5.10
2018-03-21T19:16:54.368Z,5.10
2018-03-21T19:19:21.922Z,4.90
2018-03-21T19:21:49.421Z,4.90
2018-03-21T19:24:16.933Z,4.80
2018-03-21T19:26:44.518Z,4.80
2018-03-21T19:29:12.074Z,4.80
2018-03-21T19:31:39.537Z,4.80
2018-03-21T19:34:07.051Z,4.80
2018-03-21T19:36:34.577Z,4.70
2018-03-21T19:39:02.091Z,4.70
2018-03-21T19:41:29.603Z,4.80
2018-03-21T19:43:57.349Z,4.80
2018-03-21T19:46:24.895Z,4.80
2018-03-21T19:48:52.441Z,4.70
2018-03-21T19:51:19.987Z,4.70
2018-03-21T19:53:47.510Z,4.70
2018-03-21T19:56:15.047Z,4.60
2018-03-21T19:58:42.582Z,4.60
2018-03-21T20:01:10.101Z,4.60
2018-03-21T20:03:37.620Z,4.70
2018-03-21T20:06:05.154Z,4.70
2018-03-21T20:08:32.698Z,4.70
2018-03-21T20:11:00.196Z,4.70
2018-03-21T20:13:27.723Z,4.60
2018-03-21T20:15:55.253Z,4.60
2018-03-21T20:18:22.781Z,4.60
2018-03-21T20:20:50.304Z,4.70
2018-03-21T20:23:17.891Z,4.80
2018-03-21T20:25:45.395Z,4.70
2018-03-21T20:28:12.988Z,4.70
2018-03-21T20:30:41.144Z,4.60
2018-03-21T20:33:08.714Z,4.70
2018-03-21T20:35:36.242Z,4.60
2018-03-21T20:38:03.780Z,4.60
2018-03-21T20:40:32.081Z,4.50
2018-03-21T20:42:59.634Z,4.50
2018-03-21T20:45:27.181Z,4.50
2018-03-21T20:47:55.474Z,4.50
2018-03-21T20:50:23.019Z,4.50
2018-03-21T20:52:50.642Z,4.50
2018-03-21T20:55:18.209Z,4.50
2018-03-21T20:57:46.536Z,4.50
2018-03-21T21:00:14.064Z,4.50
2018-03-21T21:02:41.575Z,4.50
2018-03-21T21:05:09.084Z,4.50
2018-03-21T21:07:37.397Z,4.50
2018-03-21T21:10:04.920Z,4.50
2018-03-21T21:12:32.427Z,4.50
2018-03-21T21:14:59.963Z,4.50
2018-03-21T21:17:27.562Z,4.50
2018-03-21T21:19:55.121Z,4.40
2018-03-21T21:22:23.498Z,4.40
2018-03-21T21:24:51.061Z,4.40
2018-03-21T21:27:18.595Z,4.30
2018-03-21T21:29:46.143Z,4.30
2018-03-21T21:32:13.667Z,4.20
2018-03-21T21:34:42.017Z,4.20
2018-03-21T21:37:09.587Z,4.20
2018-03-21T21:39:37.144Z,4.30
2018-03-21T21:42:04.723Z,4.20
2018-03-21T21:44:32.256Z,4.20
2018-03-21T21:46:59.788Z,4.20
2018-03-21T21:49:27.338Z,4.20
2018-03-21T22:09:14.313Z,4.20
2018-03-21T22:11:41.845Z,4.10
2018-03-21T22:14:09.363Z,4.20
2018-03-21T22:16:36.861Z,4.20
2018-03-21T22:19:05.106Z,4.20
2018-03-21T22:21:33.392Z,4.00
2018-03-21T22:24:01.664Z,4.10
2018-03-21T22:26:29.952Z,4.10
2018-03-21T22:28:57.460Z,4.00
2018-03-21T22:31:24.995Z,4.00
2018-03-21T22:33:52.532Z,4.10
2018-03-21T22:36:20.066Z,4.10
2018-03-21T22:38:47.633Z,4.10
2018-03-21T22:41:15.943Z,4.00
2018-03-21T22:43:43.522Z,4.00
2018-03-21T22:46:11.051Z,4.10
2018-03-21T22:48:38.568Z,4.10
2018-03-21T23:08:25.683Z,3.90
2018-03-21T23:10:53.466Z,3.90
2018-03-21T23:13:21.143Z,3.90
2018-03-21T23:15:48.904Z,3.90
2018-03-21T23:18:16.394Z,3.90
2018-03-21T23:20:43.911Z,3.90
2018-03-21T23:23:11.449Z,3.90
2018-03-21T23:25:38.966Z,3.90
2018-03-21T23:28:07.247Z,3.90
2018-03-21T23:30:35.535Z,3.90
2018-03-21T23:33:03.082Z,4.00
2018-03-21T23:35:30.583Z,4.00
2018-03-21T23:37:58.112Z,4.00
2018-03-21T23:40:25.707Z,4.00
2018-03-21T23:42:53.229Z,3.90
2018-03-21T23:45:20.776Z,3.90
2018-03-21T23:47:48.312Z,4.00
2018-03-21T23:50:15.861Z,3.90
2018-03-21T23:52:43.375Z,3.90
2018-03-21T23:55:10.907Z,3.90
2018-03-21T23:57:39.188Z,3.90
